createdAt,value
2022-08-05T00:00:18.773Z,2.85
2022-08-05T00:02:52.249Z,2.90
2022-08-05T00:06:02.495Z,3.50
2022-08-05T00:08:35.258Z,2.70
2022-08-05T00:10:54.011Z,2.85
2022-08-05T00:13:20.614Z,3.60
2022-08-05T00:16:05.577Z,3.67
2022-08-05T00:18:35.438Z,2.85
2022-08-05T00:21:02.232Z,3.03
2022-08-05T00:23:44.488Z,2.90
2022-08-05T00:26:14.258Z,3.40
2022-08-05T00:28:46.022Z,3.00
2022-08-05T00:31:12.689Z,3.47
2022-08-05T00:34:43.361Z,3.50
2022-08-05T00:37:09.802Z,3.15
2022-08-05T00:39:13.976Z,3.13
2022-08-05T00:41:46.742Z,3.03
2022-08-05T00:44:23.201Z,3.30
2022-08-05T00:46:53.998Z,3.50
2022-08-05T00:49:28.190Z,3.45
2022-08-05T00:51:59.854Z,2.97
2022-08-05T00:54:28.067Z,3.63
2022-08-05T00:56:56.983Z,3.28
2022-08-05T00:59:23.754Z,3.50
2022-08-05T01:01:51.065Z,3.47
2022-08-05T01:04:20.306Z,3.25
2022-08-05T01:06:56.670Z,3.42
2022-08-05T01:09:25.570Z,4.00
2022-08-05T01:12:04.494Z,3.20
2022-08-05T01:15:35.828Z,2.90
2022-08-05T01:17:57.131Z,3.88
2022-08-05T01:20:49.892Z,3.80
2022-08-05T01:23:24.619Z,4.07
2022-08-05T01:26:21.972Z,3.95
2022-08-05T01:29:05.385Z,3.92
2022-08-05T01:31:42.604Z,3.50
2022-08-05T01:34:15.750Z,3.60
2022-08-05T01:36:55.363Z,3.40
2022-08-05T01:39:46.224Z,3.75
2022-08-05T01:42:15.219Z,4.28
2022-08-05T01:44:42.234Z,4.35
2022-08-05T01:47:09.644Z,6.18
2022-08-05T01:50:01.450Z,5.97
2022-08-05T01:52:28.094Z,5.57
2022-08-05T01:54:57.095Z,5.80
2022-08-05T01:58:10.811Z,6.45
2022-08-05T02:00:16.269Z,5.82
2022-08-05T02:03:24.509Z,5.60
2022-08-05T02:05:59.898Z,6.95
2022-08-05T02:08:31.290Z,6.68
2022-08-05T02:11:04.478Z,5.97
2022-08-05T02:13:53.281Z,6.18
2022-08-05T02:16:30.400Z,6.00
2022-08-05T02:19:07.256Z,6.25
2022-08-05T02:21:38.015Z,5.13
2022-08-05T02:24:11.379Z,6.07
2022-08-05T02:26:51.887Z,5.78
2022-08-05T02:29:26.072Z,4.95
2022-08-05T02:32:10.486Z,5.43
2022-08-05T02:34:37.963Z,5.00
2022-08-05T02:37:09.174Z,4.80
2022-08-05T02:39:38.641Z,4.20
2022-08-05T02:42:08.332Z,6.20
2022-08-05T02:44:37.526Z,6.95
2022-08-05T02:47:05.845Z,6.43
2022-08-05T02:49:37.936Z,6.72
2022-08-05T02:52:13.498Z,5.57
2022-08-05T02:54:41.297Z,6.63
2022-08-05T02:58:10.734Z,7.10
2022-08-05T02:59:57.581Z,6.68
2022-08-05T03:02:29.672Z,6.45
2022-08-05T03:04:57.911Z,6.20
2022-08-05T03:08:01.183Z,5.90
2022-08-05T03:10:14.552Z,6.40
2022-08-05T03:12:41.261Z,7.10
2022-08-05T03:15:13.220Z,7.47
2022-08-05T03:17:41.906Z,6.75
2022-08-05T03:20:11.833Z,7.03
2022-08-05T03:22:44.245Z,6.38
2022-08-05T03:25:33.752Z,6.60
2022-08-05T03:28:07.212Z,6.35
2022-08-05T03:30:35.366Z,6.07
2022-08-05T03:33:03.005Z,6.15
2022-08-05T03:35:30.021Z,5.93
2022-08-05T03:38:00.610Z,5.15
2022-08-05T03:40:32.127Z,5.10
2022-08-05T03:43:01.459Z,4.60
2022-08-05T03:45:58.083Z,4.93
2022-08-05T03:48:27.541Z,5.00
2022-08-05T03:52:37.482Z,4.05
2022-08-05T03:55:00.365Z,4.43
2022-08-05T03:56:44.320Z,3.53
2022-08-05T03:59:46.938Z,3.10
2022-08-05T04:02:17.378Z,3.22
2022-08-05T04:05:00.951Z,3.03
2022-08-05T04:07:27.586Z,3.53
2022-08-05T04:09:54.753Z,3.10
2022-08-05T04:12:24.415Z,4.10
2022-08-05T04:14:51.537Z,4.78
2022-08-05T04:17:20.835Z,4.78
2022-08-05T04:19:54.565Z,4.22
2022-08-05T04:22:27.726Z,4.68
2022-08-05T04:24:54.325Z,3.60
2022-08-05T04:27:33.162Z,3.90
2022-08-05T04:30:08.495Z,4.10
2022-08-05T04:32:35.704Z,4.57
2022-08-05T04:35:03.422Z,5.25
2022-08-05T04:38:00.609Z,4.50
2022-08-05T04:40:19.795Z,4.72
2022-08-05T04:42:46.563Z,4.53
2022-08-05T04:45:14.132Z,4.57
2022-08-05T04:47:49.811Z,4.30
2022-08-05T04:50:37.114Z,4.93
2022-08-05T04:53:07.328Z,5.15
2022-08-05T04:56:15.475Z,4.47
2022-08-05T04:58:26.145Z,4.75
2022-08-05T05:00:52.880Z,4.82
2022-08-05T05:03:20.471Z,4.10
2022-08-05T05:06:35.979Z,4.93
2022-08-05T05:08:33.801Z,5.50
2022-08-05T05:11:03.037Z,5.47
2022-08-05T05:13:32.329Z,5.53
2022-08-05T05:16:10.006Z,6.75
2022-08-05T05:18:38.327Z,5.90
2022-08-05T05:21:05.524Z,6.15
2022-08-05T05:23:39.422Z,7.28
2022-08-05T05:26:19.138Z,6.78
2022-08-05T05:28:48.131Z,6.53
2022-08-05T05:31:14.831Z,6.10
2022-08-05T05:33:59.148Z,6.75
2022-08-05T05:36:28.733Z,6.75
2022-08-05T05:38:59.411Z,6.97
2022-08-05T05:41:40.514Z,7.20
2022-08-05T05:44:27.019Z,7.53
2022-08-05T05:46:58.043Z,6.32
2022-08-05T05:49:24.899Z,6.28
2022-08-05T05:51:51.661Z,7.03
2022-08-05T05:54:22.068Z,7.22
2022-08-05T05:57:13.614Z,7.22
2022-08-05T05:59:40.651Z,7.22
2022-08-05T06:02:07.290Z,6.95
2022-08-05T06:04:34.356Z,7.68
2022-08-05T06:07:01.682Z,8.05
2022-08-05T06:09:52.656Z,8.30
2022-08-05T06:12:17.359Z,8.35
2022-08-05T06:14:46.304Z,7.50
2022-08-05T06:17:22.359Z,7.65
2022-08-05T06:19:56.319Z,8.02
2022-08-05T06:22:27.215Z,7.78
2022-08-05T06:24:53.866Z,8.38
2022-08-05T06:28:12.820Z,7.72
2022-08-05T06:30:19.972Z,8.23
2022-08-05T06:32:48.096Z,7.95
2022-08-05T06:36:03.841Z,7.90
2022-08-05T06:38:11.128Z,7.32
2022-08-05T06:40:42.016Z,7.63
2022-08-05T06:43:59.188Z,7.10
2022-08-05T06:46:04.106Z,6.80
2022-08-05T06:48:47.098Z,7.72
2022-08-05T06:51:29.271Z,7.03
2022-08-05T06:53:58.803Z,5.65
2022-08-05T06:56:26.269Z,6.53
2022-08-05T06:58:54.268Z,7.15
2022-08-05T07:01:21.226Z,7.53
2022-08-05T07:03:49.474Z,7.03
2022-08-05T07:06:16.195Z,6.80
2022-08-05T07:08:47.847Z,5.85
2022-08-05T07:11:22.613Z,6.32
2022-08-05T07:14:15.383Z,4.60
2022-08-05T07:17:56.837Z,4.78
2022-08-05T07:22:27.623Z,3.95
2022-08-05T07:24:59.600Z,4.57
2022-08-05T07:27:58.740Z,4.57
2022-08-05T07:30:32.701Z,4.00
2022-08-05T07:33:01.863Z,4.70
2022-08-05T07:36:04.410Z,4.65
2022-08-05T07:38:32.355Z,4.97
2022-08-05T07:42:07.406Z,5.20
2022-08-05T07:43:51.861Z,5.15
2022-08-05T07:46:23.497Z,5.22
2022-08-05T07:49:02.247Z,4.88
2022-08-05T07:51:37.609Z,5.60
2022-08-05T07:54:15.174Z,5.47
2022-08-05T07:57:01.694Z,6.03
2022-08-05T07:59:40.433Z,6.30
2022-08-05T08:02:15.968Z,5.97
2022-08-05T08:04:45.330Z,6.60
2022-08-05T08:07:12.946Z,6.68
2022-08-05T08:09:39.591Z,5.65
2022-08-05T08:12:16.489Z,6.13
2022-08-05T08:14:52.998Z,5.38
2022-08-05T08:17:19.834Z,5.47
2022-08-05T08:20:42.769Z,5.70
2022-08-05T08:22:37.900Z,6.03
2022-08-05T08:25:15.693Z,6.60
2022-08-05T08:27:47.552Z,6.80
2022-08-05T08:30:30.008Z,6.65
2022-08-05T08:33:02.614Z,6.40
2022-08-05T08:35:34.778Z,7.13
2022-08-05T08:38:11.629Z,7.00
2022-08-05T08:40:45.710Z,6.88
2022-08-05T08:45:25.370Z,7.75
2022-08-05T08:46:09.809Z,7.00
2022-08-05T08:48:59.706Z,6.47
2022-08-05T08:52:03.048Z,7.90
2022-08-05T08:54:14.286Z,7.00
2022-08-05T08:56:47.725Z,6.82
2022-08-05T08:59:19.717Z,6.40
2022-08-05T09:01:57.015Z,5.07
2022-08-05T09:04:30.165Z,5.50
2022-08-05T09:06:57.834Z,5.50
2022-08-05T09:09:25.322Z,6.03
2022-08-05T09:11:58.563Z,5.72
2022-08-05T09:14:56.899Z,5.47
2022-08-05T09:17:42.782Z,5.55
2022-08-05T09:20:06.747Z,5.28
2022-08-05T09:23:05.076Z,5.80
2022-08-05T09:26:02.798Z,6.03
2022-08-05T09:28:24.470Z,5.25
2022-08-05T09:31:44.159Z,5.25
2022-08-05T09:34:02.583Z,6.32
2022-08-05T09:36:54.895Z,5.63
2022-08-05T09:39:27.677Z,5.40
2022-08-05T09:42:08.564Z,5.70
2022-08-05T09:44:42.810Z,5.35
2022-08-05T09:47:14.021Z,6.13
2022-08-05T09:50:00.412Z,4.70
2022-08-05T09:52:35.026Z,5.00
2022-08-05T09:55:06.286Z,4.40
2022-08-05T09:57:49.689Z,4.60
2022-08-05T10:00:24.684Z,5.05
2022-08-05T10:02:58.398Z,5.07
2022-08-05T10:05:32.929Z,4.65
2022-08-05T10:08:37.008Z,4.55
2022-08-05T10:10:53.961Z,5.15
2022-08-05T10:13:31.813Z,5.20
2022-08-05T10:16:33.893Z,4.47
2022-08-05T10:19:01.377Z,5.07
2022-08-05T10:21:40.223Z,5.60
2022-08-05T10:24:13.486Z,4.90
2022-08-05T10:26:51.397Z,4.95
2022-08-05T10:29:24.085Z,5.15
2022-08-05T10:32:54.224Z,3.75
2022-08-05T10:34:55.378Z,3.63
2022-08-05T10:37:22.029Z,4.85
2022-08-05T10:39:59.259Z,4.18
2022-08-05T10:42:40.044Z,4.32
2022-08-05T10:45:23.275Z,4.53
2022-08-05T10:48:31.892Z,3.60
2022-08-05T10:51:21.861Z,3.78
2022-08-05T10:54:01.639Z,3.83
2022-08-05T10:56:44.087Z,3.70
2022-08-05T10:59:12.666Z,4.15
2022-08-05T11:02:34.510Z,3.67
2022-08-05T11:04:58.700Z,3.63
2022-08-05T11:07:33.109Z,3.58
2022-08-05T11:10:22.169Z,3.30
2022-08-05T11:12:54.926Z,3.90
2022-08-05T11:16:00.326Z,3.85
2022-08-05T11:18:29.708Z,3.90
2022-08-05T11:20:57.020Z,4.00
2022-08-05T11:24:05.224Z,3.63
2022-08-05T11:26:32.192Z,3.72
2022-08-05T11:29:12.077Z,4.03
2022-08-05T11:31:57.878Z,3.53
2022-08-05T11:34:47.412Z,3.92
2022-08-05T11:38:26.413Z,4.20
2022-08-05T11:41:03.679Z,4.18
2022-08-05T11:44:06.292Z,4.43
2022-08-05T11:46:35.453Z,3.80
2022-08-05T11:49:02.486Z,2.40
2022-08-05T11:51:44.526Z,1.30
2022-08-05T11:54:33.573Z,0.82
2022-08-05T11:57:02.144Z,0.95
2022-08-05T11:59:49.481Z,1.00
2022-08-05T12:02:24.269Z,1.13
2022-08-05T12:04:59.521Z,1.10
2022-08-05T12:08:07.814Z,1.20
2022-08-05T12:10:13.306Z,1.50
2022-08-05T12:12:58.221Z,1.55
2022-08-05T12:15:37.999Z,2.65
2022-08-05T12:18:10.886Z,4.20
2022-08-05T12:20:40.687Z,4.60
2022-08-05T12:23:11.222Z,5.38
2022-08-05T12:25:56.815Z,7.30
2022-08-05T12:28:39.443Z,7.15
2022-08-05T12:31:06.263Z,7.53
2022-08-05T12:33:38.485Z,7.65
2022-08-05T12:36:08.573Z,6.85
2022-08-05T12:38:41.614Z,7.55
2022-08-05T12:41:17.375Z,7.25
2022-08-05T12:43:51.269Z,6.88
2022-08-05T12:46:28.884Z,7.47
2022-08-05T12:49:13.222Z,7.10
2022-08-05T12:52:13.901Z,5.70
2022-08-05T12:54:47.564Z,5.40
2022-08-05T12:57:16.486Z,5.13
2022-08-05T12:59:46.998Z,5.15
2022-08-05T13:02:31.676Z,4.20
2022-08-05T13:04:58.740Z,4.05
2022-08-05T13:07:55.981Z,4.03
2022-08-05T13:10:14.692Z,3.90
2022-08-05T13:12:51.295Z,3.25
2022-08-05T13:15:42.221Z,3.40
2022-08-05T13:18:20.785Z,3.67
2022-08-05T13:20:50.501Z,3.35
2022-08-05T13:23:18.244Z,3.20
2022-08-05T13:25:51.670Z,2.97
2022-08-05T13:28:27.185Z,3.03
2022-08-05T13:30:53.902Z,2.67
2022-08-05T13:34:23.041Z,2.97
2022-08-05T13:36:09.437Z,2.95
2022-08-05T13:38:38.458Z,2.75
2022-08-05T13:41:08.924Z,2.80
2022-08-05T13:43:44.822Z,2.50
2022-08-05T13:46:43.692Z,2.20
2022-08-05T13:49:10.477Z,1.95
2022-08-05T13:51:45.794Z,1.90
2022-08-05T13:54:15.433Z,1.95
2022-08-05T13:56:50.237Z,1.92
2022-08-05T13:59:24.257Z,1.98
2022-08-05T14:01:56.521Z,1.98
2022-08-05T14:04:43.602Z,2.00
2022-08-05T14:07:25.623Z,2.10
2022-08-05T14:10:05.434Z,1.98
2022-08-05T14:12:35.495Z,1.83
2022-08-05T14:15:06.009Z,1.90
2022-08-05T14:17:48.902Z,2.17
2022-08-05T14:20:18.356Z,2.22
2022-08-05T14:22:49.901Z,2.33
2022-08-05T14:25:21.979Z,2.08
2022-08-05T14:27:49.495Z,1.90
2022-08-05T14:30:20.430Z,2.03
2022-08-05T14:32:50.311Z,1.80
2022-08-05T14:35:20.711Z,2.05
2022-08-05T14:37:53.570Z,1.98
2022-08-05T14:40:24.169Z,2.00
2022-08-05T14:42:51.933Z,1.88
2022-08-05T14:45:18.699Z,1.33
2022-08-05T14:48:05.259Z,1.33
2022-08-05T14:50:32.280Z,1.33
2022-08-05T14:53:01.446Z,1.90
2022-08-05T14:55:38.560Z,1.30
2022-08-05T14:58:11.880Z,1.58
2022-08-05T15:00:59.360Z,1.70
2022-08-05T15:03:33.151Z,1.55
2022-08-05T15:06:06.935Z,1.70
2022-08-05T15:08:57.542Z,1.65
2022-08-05T15:11:22.933Z,1.80
2022-08-05T15:14:11.930Z,1.70
2022-08-05T15:16:58.535Z,1.80
2022-08-05T15:19:26.253Z,1.50
2022-08-05T15:21:52.945Z,1.70
2022-08-05T15:24:24.548Z,1.65
2022-08-05T15:26:51.396Z,2.15
2022-08-05T15:29:18.044Z,2.03
2022-08-05T15:31:52.678Z,1.60
2022-08-05T15:34:33.197Z,1.83
2022-08-05T15:37:06.967Z,1.88
2022-08-05T15:41:01.279Z,1.75
2022-08-05T15:42:55.817Z,2.38
2022-08-05T15:45:38.185Z,1.95
2022-08-05T15:48:05.766Z,2.10
2022-08-05T15:50:33.603Z,1.92
2022-08-05T15:53:05.168Z,2.42
2022-08-05T15:56:01.256Z,1.85
2022-08-05T15:58:23.117Z,1.80
2022-08-05T16:01:03.403Z,2.05
2022-08-05T16:03:36.797Z,1.63
2022-08-05T16:06:08.868Z,2.30
2022-08-05T16:08:38.466Z,1.95
2022-08-05T16:11:05.137Z,1.83
2022-08-05T16:13:35.031Z,1.65
2022-08-05T16:16:05.296Z,1.70
2022-08-05T16:18:34.850Z,1.60
2022-08-05T16:21:18.663Z,1.70
2022-08-05T16:23:53.521Z,1.80
2022-08-05T16:26:26.408Z,1.90
2022-08-05T16:28:54.900Z,1.63
2022-08-05T16:31:21.712Z,1.73
2022-08-05T16:33:48.896Z,1.90
2022-08-05T16:36:20.369Z,1.88
2022-08-05T16:38:54.767Z,2.05
2022-08-05T16:42:13.943Z,2.00
2022-08-05T16:44:09.889Z,2.20
2022-08-05T16:46:38.364Z,1.85
2022-08-05T16:49:09.040Z,2.17
2022-08-05T16:51:42.745Z,1.42
2022-08-05T16:54:24.021Z,1.50
2022-08-05T16:56:54.115Z,1.77
2022-08-05T16:59:20.774Z,1.30
2022-08-05T17:01:53.192Z,1.30
2022-08-05T17:04:28.901Z,1.40
2022-08-05T17:07:01.854Z,1.20
2022-08-05T17:09:30.625Z,1.70
2022-08-05T17:12:05.846Z,1.30
2022-08-05T17:14:38.084Z,1.40
2022-08-05T17:17:09.283Z,1.40
2022-08-05T17:19:43.741Z,1.40
2022-08-05T17:22:24.723Z,1.50
2022-08-05T17:24:58.079Z,1.83
2022-08-05T17:27:33.692Z,1.73
2022-08-05T17:30:02.699Z,1.52
2022-08-05T17:32:29.959Z,1.40
2022-08-05T17:34:58.952Z,1.45
2022-08-05T17:37:41.852Z,1.77
2022-08-05T17:40:16.016Z,1.73
2022-08-05T17:42:50.783Z,1.88
2022-08-05T17:45:21.049Z,1.20
2022-08-05T17:47:53.832Z,1.45
2022-08-05T17:50:28.327Z,1.75
2022-08-05T17:52:58.699Z,1.27
2022-08-05T17:55:34.683Z,1.40
2022-08-05T17:58:06.819Z,1.48
2022-08-05T18:00:34.487Z,1.50
2022-08-05T18:03:02.316Z,1.60
2022-08-05T18:05:35.400Z,1.50
2022-08-05T18:08:02.773Z,1.25
2022-08-05T18:10:33.466Z,1.30
2022-08-05T18:13:02.020Z,1.40
2022-08-05T18:15:35.092Z,1.48
2022-08-05T18:18:11.106Z,1.48
2022-08-05T18:20:38.958Z,1.40
2022-08-05T18:23:09.311Z,1.50
2022-08-05T18:25:39.691Z,1.55
2022-08-05T18:28:16.263Z,1.73
2022-08-05T18:30:50.863Z,1.55
2022-08-05T18:33:23.103Z,1.40
2022-08-05T18:36:03.773Z,1.55
2022-08-05T18:38:34.556Z,1.70
2022-08-05T18:41:56.590Z,2.08
2022-08-05T18:43:49.432Z,1.73
2022-08-05T18:46:19.940Z,1.63
2022-08-05T18:48:53.462Z,1.50
2022-08-05T18:52:04.499Z,1.58
2022-08-05T18:54:31.277Z,1.48
2022-08-05T18:57:01.551Z,2.00
2022-08-05T18:59:44.036Z,1.65
2022-08-05T19:02:27.838Z,1.70
2022-08-05T19:05:02.733Z,1.60
2022-08-05T19:07:46.940Z,2.08
2022-08-05T19:10:17.191Z,1.90
2022-08-05T19:12:45.931Z,1.98
2022-08-05T19:15:57.389Z,2.15
2022-08-05T19:18:10.446Z,2.45
2022-08-05T19:20:41.709Z,1.98
2022-08-05T19:24:06.150Z,2.00
2022-08-05T19:26:03.290Z,1.77
2022-08-05T19:28:34.704Z,2.08
2022-08-05T19:31:05.964Z,1.80
2022-08-05T19:33:36.853Z,1.70
2022-08-05T19:36:06.873Z,2.20
2022-08-05T19:38:37.125Z,2.00
2022-08-05T19:41:10.129Z,2.30
2022-08-05T19:44:05.295Z,2.33
2022-08-05T19:46:29.522Z,1.88
2022-08-05T19:49:02.834Z,2.75
2022-08-05T19:52:05.975Z,1.98
2022-08-05T19:54:26.667Z,2.33
2022-08-05T19:56:59.057Z,2.05
2022-08-05T20:00:00.465Z,1.67
2022-08-05T20:02:14.503Z,2.33
2022-08-05T20:04:42.961Z,1.92
2022-08-05T20:07:13.119Z,2.08
2022-08-05T20:09:54.395Z,2.28
2022-08-05T20:12:24.400Z,2.00
2022-08-05T20:14:52.865Z,1.90
2022-08-05T20:17:23.522Z,1.92
2022-08-05T20:19:56.978Z,2.00
2022-08-05T20:22:26.921Z,2.08
2022-08-05T20:24:54.932Z,2.13
2022-08-05T20:27:27.014Z,2.03
2022-08-05T20:29:57.569Z,1.67
2022-08-05T20:32:25.691Z,1.63
2022-08-05T20:34:52.387Z,1.50
2022-08-05T20:38:04.999Z,1.63
2022-08-05T20:40:06.965Z,1.90
2022-08-05T20:42:34.651Z,1.70
2022-08-05T20:45:02.646Z,1.48
2022-08-05T20:47:32.722Z,1.50
2022-08-05T20:50:02.117Z,1.60
2022-08-05T20:52:29.339Z,1.60
2022-08-05T20:54:59.656Z,1.52
2022-08-05T20:57:44.638Z,1.25
2022-08-05T21:00:40.262Z,1.48
2022-08-05T21:03:06.965Z,1.15
2022-08-05T21:05:48.431Z,1.10
2022-08-05T21:08:28.177Z,1.33
2022-08-05T21:11:10.050Z,1.30
2022-08-05T21:13:55.697Z,1.50
2022-08-05T21:16:29.702Z,1.30
2022-08-05T21:19:01.140Z,1.10
2022-08-05T21:21:43.723Z,1.10
2022-08-05T21:24:13.015Z,1.20
2022-08-05T21:26:44.913Z,1.27
2022-08-05T21:29:16.830Z,1.08
2022-08-05T21:31:43.635Z,0.98
2022-08-05T21:34:10.746Z,1.00
2022-08-05T21:36:38.171Z,0.90
2022-08-05T21:39:05.063Z,1.20
2022-08-05T21:41:35.606Z,1.20
2022-08-05T21:44:04.072Z,1.20
2022-08-05T21:46:34.941Z,1.00
2022-08-05T21:49:07.175Z,1.10
2022-08-05T21:52:16.015Z,0.90
2022-08-05T21:54:27.668Z,1.00
2022-08-05T21:57:04.887Z,1.00
2022-08-05T22:00:01.493Z,1.10
2022-08-05T22:02:28.287Z,1.15
2022-08-05T22:04:58.144Z,1.25
2022-08-05T22:07:40.352Z,1.35
2022-08-05T22:10:15.212Z,1.10
2022-08-05T22:12:45.099Z,1.10
2022-08-05T22:16:04.734Z,1.52
2022-08-05T22:18:04.819Z,1.20
2022-08-05T22:20:31.621Z,1.00
2022-08-05T22:23:17.406Z,1.30
2022-08-05T22:26:10.150Z,1.10
2022-08-05T22:28:38.518Z,1.30
2022-08-05T22:31:05.978Z,0.90
2022-08-05T22:33:58.513Z,1.15
2022-08-05T22:36:24.032Z,1.20
2022-08-05T22:38:53.735Z,1.00
2022-08-05T22:42:05.419Z,1.10
2022-08-05T22:44:09.709Z,1.10
2022-08-05T22:46:39.854Z,1.15
2022-08-05T22:49:46.175Z,1.10
2022-08-05T22:52:05.388Z,1.25
2022-08-05T22:54:36.321Z,1.25
2022-08-05T22:57:04.514Z,1.13
2022-08-05T22:59:46.311Z,1.00
2022-08-05T23:02:18.310Z,1.27
2022-08-05T23:04:51.379Z,1.05
2022-08-05T23:07:21.830Z,1.13
2022-08-05T23:09:53.464Z,1.10
2022-08-05T23:12:32.777Z,1.10
2022-08-05T23:15:03.049Z,1.05
2022-08-05T23:17:34.125Z,1.10
2022-08-05T23:20:05.551Z,1.63
2022-08-05T23:22:36.918Z,1.23
2022-08-05T23:25:04.319Z,1.20
2022-08-05T23:27:42.575Z,1.30
2022-08-05T23:30:27.039Z,1.10
2022-08-05T23:32:55.816Z,1.90
2022-08-05T23:35:24.343Z,2.35
2022-08-05T23:37:55.354Z,2.63
2022-08-05T23:40:27.216Z,2.80
2022-08-05T23:42:54.206Z,2.88
2022-08-05T23:45:20.930Z,1.85
2022-08-05T23:47:53.763Z,2.28
2022-08-05T23:50:26.087Z,1.85
2022-08-05T23:52:55.264Z,1.45
2022-08-05T23:55:22.447Z,1.67
2022-08-05T23:57:52.927Z,1.70
